Time;durP1;ratioP1;P1;durP2;ratioP2;P2;SDS_P1;SDS_P2;PMS_P1;PMS_P2;Temp;Humidity;BMP_temperature;BMP_pressure;BME280_temperature;BME280_humidity;BME280_pressure;Samples;Min_cycle;Max_cycle;Signal;HPM_P1;HPM_P2
2021/07/02 00:00:26;;;;;;;29.60;8.93;;;;;;;;;;5013370;28;20022;-68
2021/07/02 00:02:51;;;;;;;30.63;8.80;;;;;;;;;;5010339;28;20042;-68
2021/07/02 00:05:17;;;;;;;27.10;8.20;;;;;;;;;;5010577;28;20078;-68
2021/07/02 00:07:42;;;;;;;35.67;9.10;;;;;;;;;;5011995;28;20220;-68
2021/07/02 00:10:08;;;;;;;32.40;8.63;;;;;;;;;;5013403;28;20144;-68
2021/07/02 00:12:33;;;;;;;30.73;8.33;;;;;;;;;;5012468;28;20096;-68
2021/07/02 00:14:58;;;;;;;23.23;8.67;;;;;;;;;;5013405;28;20133;-67
2021/07/02 00:17:24;;;;;;;31.60;9.37;;;;;;;;;;5012818;28;20024;-69
2021/07/02 00:19:49;;;;;;;32.03;8.80;;;;;;;;;;5013754;28;20049;-69
2021/07/02 00:22:14;;;;;;;32.23;8.40;;;;;;;;;;5012485;28;20059;-69
2021/07/02 00:24:40;;;;;;;33.80;9.67;;;;;;;;;;5013298;28;20033;-69
2021/07/02 00:27:05;;;;;;;24.53;8.27;;;;;;;;;;5012701;28;20394;-69
2021/07/02 00:29:30;;;;;;;30.77;9.27;;;;;;;;;;5011968;28;20052;-69
2021/07/02 00:31:56;;;;;;;35.07;9.70;;;;;;;;;;5009461;28;20036;-69
2021/07/02 00:34:21;;;;;;;34.67;9.23;;;;;;;;;;5011410;28;20065;-69
2021/07/02 00:36:47;;;;;;;29.17;9.93;;;;;;;;;;5012612;28;20038;-69
2021/07/02 00:39:12;;;;;;;30.47;9.43;;;;;;;;;;5012219;28;20505;-69
2021/07/02 00:41:38;;;;;;;33.83;10.03;;;;;;;;;;5012548;28;20029;-69
2021/07/02 00:44:03;;;;;;;30.13;9.40;;;;;;;;;;5011625;28;20213;-69
2021/07/02 00:46:28;;;;;;;32.50;9.93;;;;;;;;;;5012342;28;20036;-69
2021/07/02 00:48:54;;;;;;;33.93;9.97;;;;;;;;;;5011716;28;20026;-69
2021/07/02 00:51:20;;;;;;;32.47;8.77;;;;;;;;;;5012010;28;20080;-69
2021/07/02 00:53:45;;;;;;;38.23;8.20;;;;;;;;;;5002342;28;20370;-69
2021/07/02 00:56:12;;;;;;;33.30;8.97;;;;;;;;;;5012054;28;20038;-69
2021/07/02 00:58:37;;;;;;;33.20;9.00;;;;;;;;;;5011866;28;20469;-69
2021/07/02 01:01:03;;;;;;;25.63;7.80;;;;;;;;;;5011497;28;20022;-69
2021/07/02 01:03:29;;;;;;;26.50;8.73;;;;;;;;;;5011279;28;20081;-69
2021/07/02 01:05:54;;;;;;;29.17;8.83;;;;;;;;;;5012140;28;20033;-69
2021/07/02 01:08:20;;;;;;;28.77;8.13;;;;;;;;;;5011629;28;20052;-69
2021/07/02 01:10:45;;;;;;;38.13;9.30;;;;;;;;;;5012117;28;20037;-69
2021/07/02 01:13:11;;;;;;;35.90;9.57;;;;;;;;;;5011988;28;20105;-69
2021/07/02 01:15:36;;;;;;;35.40;9.07;;;;;;;;;;5012438;28;20119;-69
2021/07/02 01:18:05;;;;;;;28.40;8.97;;;;;;;;;;5011766;28;20022;-69
2021/07/02 01:20:31;;;;;;;40.33;10.13;;;;;;;;;;5022983;28;20131;-69
2021/07/02 01:22:57;;;;;;;47.40;10.47;;;;;;;;;;5010904;28;20512;-69
2021/07/02 01:25:23;;;;;;;28.30;10.00;;;;;;;;;;5013040;28;20030;-69
2021/07/02 01:27:48;;;;;;;36.83;9.07;;;;;;;;;;5011979;28;20030;-69
2021/07/02 01:30:14;;;;;;;27.73;8.27;;;;;;;;;;5012205;28;20034;-69
2021/07/02 01:32:40;;;;;;;35.93;9.50;;;;;;;;;;5012054;28;20371;-69
2021/07/02 01:35:05;;;;;;;24.63;8.03;;;;;;;;;;5012507;28;20041;-69
2021/07/02 01:37:31;;;;;;;31.60;9.00;;;;;;;;;;5011636;28;20030;-69
2021/07/02 01:39:56;;;;;;;31.10;9.50;;;;;;;;;;5012470;28;20092;-69
2021/07/02 01:42:21;;;;;;;29.60;7.80;;;;;;;;;;5011599;28;20026;-69
2021/07/02 01:44:50;;;;;;;32.13;8.67;;;;;;;;;;5012083;28;20430;-69
2021/07/02 01:47:15;;;;;;;27.97;8.87;;;;;;;;;;5011995;28;20052;-69
2021/07/02 01:49:40;;;;;;;32.30;8.33;;;;;;;;;;5011757;28;20416;-69
2021/07/02 01:52:06;;;;;;;32.87;8.47;;;;;;;;;;5011510;28;20196;-69
2021/07/02 01:54:34;;;;;;;26.17;8.70;;;;;;;;;;5012444;28;20080;-69
2021/07/02 01:57:00;;;;;;;30.67;9.17;;;;;;;;;;5011569;28;20030;-69
2021/07/02 01:59:26;;;;;;;36.50;8.77;;;;;;;;;;5012092;28;20056;-69
2021/07/02 02:01:51;;;;;;;26.67;7.90;;;;;;;;;;5007090;28;20479;-69
2021/07/02 02:04:16;;;;;;;32.37;8.93;;;;;;;;;;5011993;28;20037;-69
2021/07/02 02:06:42;;;;;;;27.83;8.63;;;;;;;;;;5011609;28;20463;-69
2021/07/02 02:09:07;;;;;;;31.40;8.90;;;;;;;;;;5011239;28;20022;-70
2021/07/02 02:11:33;;;;;;;33.00;8.13;;;;;;;;;;5012423;28;20101;-69
2021/07/02 02:13:58;;;;;;;30.50;8.60;;;;;;;;;;5011795;28;20018;-69
2021/07/02 02:16:24;;;;;;;40.30;8.80;;;;;;;;;;5012228;28;20497;-69
2021/07/02 02:18:50;;;;;;;32.33;8.77;;;;;;;;;;5011695;28;20018;-69
2021/07/02 02:21:15;;;;;;;28.83;8.73;;;;;;;;;;5013613;28;20025;-69
2021/07/02 02:23:40;;;;;;;36.23;10.10;;;;;;;;;;5015308;28;20030;-69
2021/07/02 02:26:06;;;;;;;29.83;9.40;;;;;;;;;;5015274;28;20045;-69
2021/07/02 02:28:32;;;;;;;26.73;9.00;;;;;;;;;;5016068;28;20041;-69
2021/07/02 02:30:57;;;;;;;28.37;8.70;;;;;;;;;;5015882;28;20080;-70
2021/07/02 02:33:22;;;;;;;31.33;9.00;;;;;;;;;;5015559;28;20030;-73
2021/07/02 02:35:48;;;;;;;33.17;8.53;;;;;;;;;;5015675;28;20021;-74
2021/07/02 02:38:13;;;;;;;40.27;8.23;;;;;;;;;;5015894;28;20022;-74
2021/07/02 02:40:39;;;;;;;27.13;8.37;;;;;;;;;;5015817;28;20018;-73
2021/07/02 02:43:04;;;;;;;27.63;8.00;;;;;;;;;;5015444;28;20028;-73
2021/07/02 02:45:32;;;;;;;29.67;7.60;;;;;;;;;;5016025;28;20464;-73
2021/07/02 02:47:57;;;;;;;32.67;8.67;;;;;;;;;;5011886;28;20520;-73
2021/07/02 02:50:22;;;;;;;35.20;8.07;;;;;;;;;;5015745;28;20109;-70
2021/07/02 02:52:48;;;;;;;27.60;7.73;;;;;;;;;;5016112;28;20018;-71
2021/07/02 02:55:13;;;;;;;30.40;8.30;;;;;;;;;;5015991;28;20129;-71
2021/07/02 02:57:39;;;;;;;21.90;7.10;;;;;;;;;;5015623;28;20037;-71
2021/07/02 03:00:09;;;;;;;34.77;7.73;;;;;;;;;;5015925;28;20018;-70
2021/07/02 03:02:34;;;;;;;28.50;7.53;;;;;;;;;;5015115;28;20038;-70
2021/07/02 03:04:59;;;;;;;30.87;7.83;;;;;;;;;;5015820;28;20378;-70
2021/07/02 03:07:25;;;;;;;32.07;8.10;;;;;;;;;;5015567;28;20083;-70
2021/07/02 03:09:50;;;;;;;23.40;8.43;;;;;;;;;;5014983;28;20456;-70
2021/07/02 03:12:15;;;;;;;26.00;7.83;;;;;;;;;;5015394;28;20106;-70
2021/07/02 03:14:41;;;;;;;27.70;7.90;;;;;;;;;;5013953;28;20030;-70
2021/07/02 03:17:06;;;;;;;25.57;7.37;;;;;;;;;;5014041;28;20032;-68
2021/07/02 03:19:32;;;;;;;31.23;8.03;;;;;;;;;;5014937;28;20378;-68
2021/07/02 03:21:57;;;;;;;23.27;7.77;;;;;;;;;;5014707;28;20374;-70
2021/07/02 03:24:22;;;;;;;25.60;7.43;;;;;;;;;;5015297;28;20017;-69
2021/07/02 03:26:49;;;;;;;26.33;7.20;;;;;;;;;;5014645;28;20060;-70
2021/07/02 03:29:14;;;;;;;22.00;6.53;;;;;;;;;;5014092;28;20398;-70
2021/07/02 03:31:40;;;;;;;23.37;7.40;;;;;;;;;;5016129;28;20038;-69
2021/07/02 03:34:05;;;;;;;24.40;7.27;;;;;;;;;;5014482;28;20030;-70
2021/07/02 03:36:31;;;;;;;26.87;6.97;;;;;;;;;;5014265;28;20101;-70
2021/07/02 03:38:57;;;;;;;25.10;6.97;;;;;;;;;;5014783;28;20022;-70
2021/07/02 03:41:22;;;;;;;19.03;6.30;;;;;;;;;;5015584;28;20080;-69
2021/07/02 03:43:48;;;;;;;25.87;7.17;;;;;;;;;;5002531;28;20029;-70
2021/07/02 03:46:13;;;;;;;21.83;7.10;;;;;;;;;;5015022;28;20466;-70
2021/07/02 03:48:38;;;;;;;22.17;7.07;;;;;;;;;;5015556;28;20033;-70
2021/07/02 03:51:04;;;;;;;20.53;7.40;;;;;;;;;;5014085;28;20117;-70
2021/07/02 03:53:29;;;;;;;18.07;6.57;;;;;;;;;;5015542;28;20069;-70
2021/07/02 03:55:55;;;;;;;24.87;7.87;;;;;;;;;;5015361;28;20022;-70
2021/07/02 03:58:23;;;;;;;18.60;6.73;;;;;;;;;;5013359;28;20022;-71
2021/07/02 04:00:48;;;;;;;20.90;7.03;;;;;;;;;;5015357;28;20030;-70
2021/07/02 04:05:44;;;;;;;22.13;7.80;;;;;;;;;;5015450;28;20046;-72
2021/07/02 04:08:10;;;;;;;24.23;7.60;;;;;;;;;;5014649;28;20028;-72
2021/07/02 04:10:36;;;;;;;22.07;7.23;;;;;;;;;;5014748;28;20104;-72
2021/07/02 04:13:04;;;;;;;21.87;7.43;;;;;;;;;;5014943;28;20060;-72
2021/07/02 04:15:30;;;;;;;19.20;7.50;;;;;;;;;;5014835;28;20022;-71
2021/07/02 04:17:55;;;;;;;18.60;6.73;;;;;;;;;;5014493;28;20041;-72
2021/07/02 04:20:21;;;;;;;23.23;7.97;;;;;;;;;;5014629;28;20025;-72
2021/07/02 04:22:46;;;;;;;26.33;8.13;;;;;;;;;;5014703;28;20049;-71
2021/07/02 04:25:12;;;;;;;24.77;7.70;;;;;;;;;;5014142;28;20025;-71
2021/07/02 04:27:41;;;;;;;24.87;7.17;;;;;;;;;;5013666;28;20049;-71
2021/07/02 04:30:07;;;;;;;23.37;8.17;;;;;;;;;;5012509;28;20034;-71
2021/07/02 04:32:33;;;;;;;23.43;7.73;;;;;;;;;;5011901;28;20395;-70
2021/07/02 04:34:58;;;;;;;20.27;8.00;;;;;;;;;;5004887;28;20097;-70
2021/07/02 04:37:23;;;;;;;19.73;7.83;;;;;;;;;;5012038;28;20018;-70
2021/07/02 04:39:49;;;;;;;16.53;7.00;;;;;;;;;;5011557;28;20018;-70
2021/07/02 04:42:14;;;;;;;20.13;7.27;;;;;;;;;;5011604;28;20026;-71
2021/07/02 04:44:40;;;;;;;25.53;6.67;;;;;;;;;;5011638;28;20037;-71
2021/07/02 04:47:05;;;;;;;19.43;6.83;;;;;;;;;;5012972;28;20165;-71
2021/07/02 04:49:31;;;;;;;20.73;7.40;;;;;;;;;;5012934;28;20030;-71
2021/07/02 04:51:56;;;;;;;20.63;6.87;;;;;;;;;;5012673;28;20029;-71
2021/07/02 04:54:21;;;;;;;23.13;7.00;;;;;;;;;;5013102;28;20026;-71
2021/07/02 04:56:47;;;;;;;25.93;6.73;;;;;;;;;;5019165;28;20028;-68
2021/07/02 04:59:13;;;;;;;22.47;7.03;;;;;;;;;;5012673;28;20022;-68
2021/07/02 05:01:38;;;;;;;17.80;7.30;;;;;;;;;;5013002;28;20377;-68
2021/07/02 05:04:04;;;;;;;24.80;6.97;;;;;;;;;;5012589;28;20049;-68
2021/07/02 05:06:30;;;;;;;22.50;8.13;;;;;;;;;;5013207;28;20105;-68
2021/07/02 05:08:55;;;;;;;19.37;6.43;;;;;;;;;;5012918;28;20502;-68
2021/07/02 05:11:21;;;;;;;19.40;6.70;;;;;;;;;;5013132;28;20029;-68
2021/07/02 05:13:46;;;;;;;17.97;6.37;;;;;;;;;;5012445;28;20108;-68
2021/07/02 05:16:11;;;;;;;17.93;6.40;;;;;;;;;;5013072;28;20030;-69
2021/07/02 05:18:37;;;;;;;17.30;6.33;;;;;;;;;;5012277;28;20546;-68
2021/07/02 05:21:02;;;;;;;18.27;6.63;;;;;;;;;;5012699;28;20032;-68
2021/07/02 05:23:28;;;;;;;18.90;6.60;;;;;;;;;;5012912;28;20026;-68
2021/07/02 05:25:53;;;;;;;15.63;6.47;;;;;;;;;;5013172;28;20030;-68
2021/07/02 05:28:18;;;;;;;19.23;6.60;;;;;;;;;;5012630;28;20030;-68
2021/07/02 05:30:44;;;;;;;20.83;6.73;;;;;;;;;;5012480;28;20022;-68
2021/07/02 05:33:09;;;;;;;24.57;7.60;;;;;;;;;;5012457;28;20049;-68
2021/07/02 05:35:35;;;;;;;23.00;7.97;;;;;;;;;;5012687;28;20030;-68
2021/07/02 05:38:00;;;;;;;23.33;6.83;;;;;;;;;;5012479;28;20050;-68
2021/07/02 05:40:25;;;;;;;19.43;6.90;;;;;;;;;;5012760;28;20041;-68
2021/07/02 05:42:51;;;;;;;23.87;7.90;;;;;;;;;;5012467;28;20040;-68
2021/07/02 05:45:19;;;;;;;21.57;7.73;;;;;;;;;;5012578;28;20045;-68
2021/07/02 05:47:47;;;;;;;19.00;6.87;;;;;;;;;;5011923;28;20029;-68
2021/07/02 05:50:13;;;;;;;21.27;7.50;;;;;;;;;;5012203;28;20032;-68
2021/07/02 05:52:38;;;;;;;20.07;7.00;;;;;;;;;;5012270;28;20022;-68
2021/07/02 05:55:07;;;;;;;20.77;7.53;;;;;;;;;;5013708;28;20067;-70
2021/07/02 05:57:32;;;;;;;21.00;7.13;;;;;;;;;;5018155;28;20033;-69
2021/07/02 05:59:58;;;;;;;28.47;8.73;;;;;;;;;;5014555;28;20014;-70
2021/07/02 06:02:23;;;;;;;26.33;8.10;;;;;;;;;;5015075;28;20050;-70
2021/07/02 06:04:49;;;;;;;24.07;7.83;;;;;;;;;;5017469;28;20026;-70
2021/07/02 06:07:14;;;;;;;22.60;8.30;;;;;;;;;;5017156;28;20064;-70
2021/07/02 06:09:39;;;;;;;19.40;7.33;;;;;;;;;;5016507;28;20083;-70
2021/07/02 06:12:05;;;;;;;20.20;7.23;;;;;;;;;;5017228;28;20026;-70
2021/07/02 06:14:31;;;;;;;26.83;8.63;;;;;;;;;;5017369;28;20029;-70
2021/07/02 06:16:56;;;;;;;25.03;7.90;;;;;;;;;;5016209;28;20025;-70
2021/07/02 06:19:21;;;;;;;26.50;8.93;;;;;;;;;;5016331;28;20033;-70
2021/07/02 06:21:47;;;;;;;26.93;7.80;;;;;;;;;;5015680;28;20080;-70
2021/07/02 06:24:12;;;;;;;19.43;6.77;;;;;;;;;;5016578;28;20418;-69
2021/07/02 06:26:38;;;;;;;24.87;7.53;;;;;;;;;;5016548;28;20018;-69
2021/07/02 06:29:04;;;;;;;24.90;8.33;;;;;;;;;;5016597;28;20054;-69
2021/07/02 06:31:29;;;;;;;22.93;7.50;;;;;;;;;;5015383;28;20418;-69
2021/07/02 06:33:55;;;;;;;23.57;8.30;;;;;;;;;;5015488;28;20025;-70
2021/07/02 06:36:20;;;;;;;21.27;7.70;;;;;;;;;;5015263;28;20068;-70
2021/07/02 06:38:45;;;;;;;19.47;7.17;;;;;;;;;;5015169;28;20061;-69
2021/07/02 06:41:10;;;;;;;23.03;7.60;;;;;;;;;;5015295;28;20057;-69
2021/07/02 06:43:36;;;;;;;22.37;8.10;;;;;;;;;;5014849;28;20033;-69
2021/07/02 06:46:01;;;;;;;21.47;7.73;;;;;;;;;;5016112;28;20026;-70
2021/07/02 06:48:27;;;;;;;20.30;7.60;;;;;;;;;;5016102;28;20037;-69
2021/07/02 06:50:55;;;;;;;23.37;7.80;;;;;;;;;;5016027;28;20030;-69
2021/07/02 06:53:21;;;;;;;22.17;8.10;;;;;;;;;;5016593;28;20466;-70
2021/07/02 06:55:47;;;;;;;21.07;7.77;;;;;;;;;;5018797;28;20040;-70
2021/07/02 06:58:12;;;;;;;30.63;7.97;;;;;;;;;;5015900;28;20026;-70
2021/07/02 07:00:40;;;;;;;17.83;6.87;;;;;;;;;;5016673;28;20053;-70
2021/07/02 07:03:06;;;;;;;20.80;7.07;;;;;;;;;;5015026;28;20049;-70
2021/07/02 07:05:32;;;;;;;23.50;7.17;;;;;;;;;;5015261;28;20060;-70
2021/07/02 07:07:57;;;;;;;19.77;7.20;;;;;;;;;;5014557;28;20041;-70
2021/07/02 07:10:23;;;;;;;26.27;8.13;;;;;;;;;;5001877;28;20053;-70
2021/07/02 07:12:48;;;;;;;17.40;6.20;;;;;;;;;;5015509;28;20576;-70
2021/07/02 07:15:14;;;;;;;14.63;6.90;;;;;;;;;;5014837;28;20145;-70
2021/07/02 07:17:39;;;;;;;16.17;5.80;;;;;;;;;;5016045;28;20029;-70
2021/07/02 07:20:05;;;;;;;15.20;6.20;;;;;;;;;;5016681;28;20064;-70
2021/07/02 07:22:32;;;;;;;19.33;6.20;;;;;;;;;;5016370;28;20034;-70
2021/07/02 07:25:00;;;;;;;18.60;7.00;;;;;;;;;;5016033;28;20084;-70
2021/07/02 07:27:25;;;;;;;17.03;6.27;;;;;;;;;;5014882;28;20419;-70
2021/07/02 07:29:51;;;;;;;20.60;6.80;;;;;;;;;;5015405;28;20041;-70
2021/07/02 07:32:16;;;;;;;18.60;6.27;;;;;;;;;;5016214;28;20038;-70
2021/07/02 07:34:44;;;;;;;14.80;6.00;;;;;;;;;;5014987;28;20386;-68
2021/07/02 07:37:19;;;;;;;13.50;5.90;;;;;;;;;;5015786;28;20053;-70
2021/07/02 07:39:45;;;;;;;17.00;5.93;;;;;;;;;;5015811;28;20101;-69
2021/07/02 07:42:10;;;;;;;18.20;6.40;;;;;;;;;;5015384;28;20128;-69
2021/07/02 07:44:35;;;;;;;19.07;6.33;;;;;;;;;;5015610;28;20403;-69
2021/07/02 07:47:01;;;;;;;13.73;6.53;;;;;;;;;;5014561;28;20383;-70
2021/07/02 07:49:26;;;;;;;15.97;6.30;;;;;;;;;;5014550;28;20026;-70
2021/07/02 07:51:59;;;;;;;17.43;5.87;;;;;;;;;;5011603;28;20096;-70
2021/07/02 07:54:24;;;;;;;16.30;6.40;;;;;;;;;;5014085;28;20051;-70
2021/07/02 07:56:50;;;;;;;18.23;6.50;;;;;;;;;;5017517;28;20018;-70
2021/07/02 07:59:16;;;;;;;17.83;5.77;;;;;;;;;;5008944;28;20028;-70
2021/07/02 08:01:42;;;;;;;21.50;7.20;;;;;;;;;;5007354;28;20530;-70
2021/07/02 08:04:07;;;;;;;17.00;6.40;;;;;;;;;;5014509;28;20109;-70
2021/07/02 08:06:32;;;;;;;25.03;6.60;;;;;;;;;;5014944;28;20097;-70
2021/07/02 08:08:58;;;;;;;14.40;6.20;;;;;;;;;;5014498;28;20033;-70
2021/07/02 08:11:23;;;;;;;17.47;5.90;;;;;;;;;;5014298;28;20037;-70
2021/07/02 08:13:48;;;;;;;16.87;6.27;;;;;;;;;;5013813;28;20037;-70
2021/07/02 08:16:14;;;;;;;14.43;6.40;;;;;;;;;;5013965;28;20049;-70
2021/07/02 08:18:39;;;;;;;13.57;5.40;;;;;;;;;;5013412;28;20054;-70
2021/07/02 08:21:04;;;;;;;14.00;6.00;;;;;;;;;;5014184;28;20028;-70
2021/07/02 08:23:30;;;;;;;16.43;5.63;;;;;;;;;;5013655;28;20029;-70
2021/07/02 08:25:55;;;;;;;16.23;5.90;;;;;;;;;;5013862;28;20030;-70
2021/07/02 08:31:05;;;;;;;13.03;4.83;;;;;;;;;;5014152;28;20032;-69
2021/07/02 08:33:31;;;;;;;11.60;4.38;;;;;;;;;;5015390;28;20120;-69
2021/07/02 08:35:56;;;;;;;8.55;3.53;;;;;;;;;;5015270;28;20113;-69
2021/07/02 08:38:22;;;;;;;9.80;3.70;;;;;;;;;;5013589;28;20110;-69
2021/07/02 08:40:47;;;;;;;10.75;3.60;;;;;;;;;;5013473;28;20038;-69
2021/07/02 08:43:12;;;;;;;8.40;3.42;;;;;;;;;;5013923;28;20056;-69
2021/07/02 08:45:38;;;;;;;7.07;2.92;;;;;;;;;;5014290;28;20025;-69
2021/07/02 08:48:05;;;;;;;6.95;2.60;;;;;;;;;;5013716;28;20029;-69
2021/07/02 08:50:31;;;;;;;7.78;2.55;;;;;;;;;;5013826;28;20441;-69
2021/07/02 08:52:56;;;;;;;6.25;3.00;;;;;;;;;;5013900;28;20445;-69
2021/07/02 08:55:22;;;;;;;8.20;2.80;;;;;;;;;;5013462;28;20034;-69
2021/07/02 08:57:47;;;;;;;8.57;3.25;;;;;;;;;;5013446;28;20597;-69
2021/07/02 09:00:13;;;;;;;10.82;3.80;;;;;;;;;;5013355;28;20458;-69
2021/07/02 09:02:40;;;;;;;8.55;3.88;;;;;;;;;;5013130;28;20049;-70
2021/07/02 09:05:24;;;;;;;8.57;4.38;;;;;;;;;;5013305;28;20030;-69
2021/07/02 09:07:49;;;;;;;11.57;4.70;;;;;;;;;;5013205;28;20033;-69
2021/07/02 09:10:15;;;;;;;9.30;4.43;;;;;;;;;;5013762;28;20429;-69
2021/07/02 09:12:50;;;;;;;11.70;4.10;;;;;;;;;;5013312;28;20382;-70
2021/07/02 09:15:15;;;;;;;15.37;5.43;;;;;;;;;;5014444;28;20378;-70
2021/07/02 09:17:54;;;;;;;12.07;4.67;;;;;;;;;;5013245;28;20026;-69
2021/07/02 09:20:23;;;;;;;15.20;4.50;;;;;;;;;;5012831;28;20025;-69
2021/07/02 09:22:55;;;;;;;10.53;4.60;;;;;;;;;;5013006;28;20030;-69
2021/07/02 09:25:28;;;;;;;11.67;4.77;;;;;;;;;;5012428;28;20036;-69
2021/07/02 09:27:55;;;;;;;12.05;5.03;;;;;;;;;;5012109;28;20036;-69
2021/07/02 09:30:21;;;;;;;11.70;4.78;;;;;;;;;;5012330;28;20077;-69
2021/07/02 09:32:51;;;;;;;11.95;4.82;;;;;;;;;;5012383;28;20033;-69
2021/07/02 09:35:17;;;;;;;11.43;4.80;;;;;;;;;;5012241;28;20172;-69
2021/07/02 09:37:45;;;;;;;10.60;4.95;;;;;;;;;;5012189;28;20036;-69
2021/07/02 09:40:12;;;;;;;11.73;4.68;;;;;;;;;;5012808;28;20050;-69
2021/07/02 09:42:38;;;;;;;10.70;4.63;;;;;;;;;;5012636;28;20037;-70
2021/07/02 09:45:27;;;;;;;10.35;4.57;;;;;;;;;;5013020;28;20414;-70
2021/07/02 09:47:53;;;;;;;13.50;5.20;;;;;;;;;;5012687;28;20069;-70
2021/07/02 09:50:24;;;;;;;13.50;5.68;;;;;;;;;;5009799;28;20161;-70
2021/07/02 09:52:57;;;;;;;12.60;5.72;;;;;;;;;;5012946;28;20022;-70
2021/07/02 09:55:27;;;;;;;10.70;5.37;;;;;;;;;;5013351;28;20382;-69
2021/07/02 09:58:09;;;;;;;14.17;6.40;;;;;;;;;;5012808;28;20084;-70
2021/07/02 10:00:39;;;;;;;12.13;6.05;;;;;;;;;;5013892;28;20033;-70
2021/07/02 10:03:06;;;;;;;14.97;6.20;;;;;;;;;;5012750;28;20053;-70
2021/07/02 10:05:42;;;;;;;14.98;6.43;;;;;;;;;;5012577;28;20080;-70
2021/07/02 10:08:07;;;;;;;17.60;7.18;;;;;;;;;;5012967;28;20633;-70
2021/07/02 10:10:36;;;;;;;16.48;6.45;;;;;;;;;;5012977;28;20093;-70
2021/07/02 10:13:01;;;;;;;16.10;6.13;;;;;;;;;;5012974;28;20041;-70
2021/07/02 10:15:27;;;;;;;14.63;6.40;;;;;;;;;;5013089;28;20022;-69
2021/07/02 10:17:59;;;;;;;13.38;6.25;;;;;;;;;;5012343;28;20475;-70
2021/07/02 10:20:26;;;;;;;12.38;5.97;;;;;;;;;;5013162;28;20018;-69
2021/07/02 10:22:53;;;;;;;11.65;5.82;;;;;;;;;;5013787;28;20100;-69
2021/07/02 10:25:20;;;;;;;11.40;5.53;;;;;;;;;;5012499;28;20367;-69
2021/07/02 10:27:45;;;;;;;13.43;6.43;;;;;;;;;;5012690;28;20517;-69
2021/07/02 10:30:11;;;;;;;11.77;5.72;;;;;;;;;;5012255;28;20045;-70
2021/07/02 10:32:37;;;;;;;11.70;5.60;;;;;;;;;;5011687;28;20033;-70
2021/07/02 10:35:04;;;;;;;12.18;5.43;;;;;;;;;;4999973;28;20025;-69
2021/07/02 10:37:30;;;;;;;11.93;5.47;;;;;;;;;;5011526;28;20017;-70
2021/07/02 10:39:56;;;;;;;10.02;5.43;;;;;;;;;;5000474;28;20018;-69
2021/07/02 10:42:21;;;;;;;15.35;5.38;;;;;;;;;;5012794;28;20018;-69
2021/07/02 10:45:13;;;;;;;10.48;5.40;;;;;;;;;;5016506;28;20041;-69
2021/07/02 10:47:49;;;;;;;11.30;4.60;;;;;;;;;;5013199;28;20045;-69
2021/07/02 10:50:34;;;;;;;12.38;5.15;;;;;;;;;;5015701;28;20269;-69
2021/07/02 10:53:18;;;;;;;10.77;5.03;;;;;;;;;;5005041;28;20542;-70
2021/07/02 10:55:44;;;;;;;10.88;4.97;;;;;;;;;;5015838;28;20053;-69
2021/07/02 10:58:09;;;;;;;12.18;5.60;;;;;;;;;;5015187;28;20060;-69
2021/07/02 11:00:54;;;;;;;12.20;5.32;;;;;;;;;;5015785;28;20076;-69
2021/07/02 11:03:21;;;;;;;9.63;5.18;;;;;;;;;;5015042;28;20116;-69
2021/07/02 11:05:46;;;;;;;11.20;5.05;;;;;;;;;;5016918;28;20026;-69
2021/07/02 11:08:31;;;;;;;14.55;5.15;;;;;;;;;;5015818;28;20087;-69
2021/07/02 11:10:57;;;;;;;13.43;5.43;;;;;;;;;;5004469;28;20435;-69
2021/07/02 11:13:23;;;;;;;11.60;5.28;;;;;;;;;;5015800;28;20084;-68
2021/07/02 11:16:04;;;;;;;12.40;4.75;;;;;;;;;;5014945;28;20026;-69
2021/07/02 11:18:38;;;;;;;11.88;5.57;;;;;;;;;;5014634;28;20049;-68
2021/07/02 11:21:11;;;;;;;8.98;4.43;;;;;;;;;;5015576;28;20378;-70
2021/07/02 11:23:40;;;;;;;14.13;5.00;;;;;;;;;;5014706;28;20045;-70
2021/07/02 11:26:08;;;;;;;9.60;5.13;;;;;;;;;;5015022;28;20057;-70
2021/07/02 11:28:42;;;;;;;13.05;5.47;;;;;;;;;;5014799;28;20022;-70
2021/07/02 11:31:08;;;;;;;11.25;5.20;;;;;;;;;;5014218;28;20165;-71
2021/07/02 11:33:34;;;;;;;10.18;4.88;;;;;;;;;;5012284;28;20065;-71
2021/07/02 11:36:09;;;;;;;11.55;5.63;;;;;;;;;;5014476;28;20050;-71
2021/07/02 11:38:48;;;;;;;12.07;6.00;;;;;;;;;;5014419;28;20018;-71
2021/07/02 11:41:21;;;;;;;16.05;6.35;;;;;;;;;;5001966;28;20068;-71
2021/07/02 11:43:46;;;;;;;12.68;5.78;;;;;;;;;;5014919;28;20076;-71
2021/07/02 11:46:13;;;;;;;11.75;5.53;;;;;;;;;;5014486;28;20069;-72
2021/07/02 11:48:42;;;;;;;13.07;5.38;;;;;;;;;;5011130;28;20022;-72
2021/07/02 11:51:18;;;;;;;9.90;4.85;;;;;;;;;;5015048;28;20382;-70
2021/07/02 11:53:48;;;;;;;12.52;5.22;;;;;;;;;;5013632;28;20018;-72
2021/07/02 11:56:16;;;;;;;18.40;5.65;;;;;;;;;;5016283;28;20025;-71
2021/07/02 11:58:51;;;;;;;11.85;5.57;;;;;;;;;;5014560;28;20022;-71
2021/07/02 12:01:18;;;;;;;10.65;4.93;;;;;;;;;;5015337;28;20022;-72
2021/07/02 12:03:45;;;;;;;10.52;5.07;;;;;;;;;;5014585;28;20112;-71
2021/07/02 12:06:14;;;;;;;10.50;5.13;;;;;;;;;;5015546;28;20026;-71
2021/07/02 12:08:47;;;;;;;11.50;5.72;;;;;;;;;;5014399;28;20470;-71
2021/07/02 12:11:12;;;;;;;15.02;6.13;;;;;;;;;;5015711;28;20168;-71
2021/07/02 12:13:37;;;;;;;12.18;5.18;;;;;;;;;;5014488;28;20061;-71
2021/07/02 12:16:10;;;;;;;12.38;5.72;;;;;;;;;;5014834;28;20026;-71
2021/07/02 12:18:39;;;;;;;10.77;5.05;;;;;;;;;;5014595;28;20494;-70
2021/07/02 12:21:11;;;;;;;18.25;5.93;;;;;;;;;;5013950;28;20021;-70
2021/07/02 12:23:38;;;;;;;12.95;5.32;;;;;;;;;;5013553;28;20025;-70
2021/07/02 12:26:14;;;;;;;14.95;5.55;;;;;;;;;;5014227;28;20096;-70
2021/07/02 12:28:58;;;;;;;11.95;5.28;;;;;;;;;;5013448;28;20056;-68
2021/07/02 12:31:44;;;;;;;12.75;5.65;;;;;;;;;;5011893;28;20029;-68
2021/07/02 12:34:14;;;;;;;12.63;5.28;;;;;;;;;;5013004;28;20046;-70
2021/07/02 12:36:53;;;;;;;11.48;4.97;;;;;;;;;;5014141;28;20056;-70
2021/07/02 12:39:19;;;;;;;11.32;5.00;;;;;;;;;;5013279;28;20053;-70
2021/07/02 12:41:45;;;;;;;11.13;4.90;;;;;;;;;;5013844;28;20391;-70
2021/07/02 12:44:12;;;;;;;12.30;5.57;;;;;;;;;;5012958;28;20076;-71
2021/07/02 12:46:37;;;;;;;10.25;4.82;;;;;;;;;;5013411;28;20022;-70
2021/07/02 12:49:19;;;;;;;13.75;5.65;;;;;;;;;;5013530;28;20505;-70
2021/07/02 12:52:00;;;;;;;10.83;4.83;;;;;;;;;;5013431;28;20058;-70
2021/07/02 12:57:15;;;;;;;12.30;4.82;;;;;;;;;;5015147;28;20076;-70
2021/07/02 12:59:44;;;;;;;10.40;5.15;;;;;;;;;;5013235;28;20105;-70
2021/07/02 13:02:09;;;;;;;10.73;4.95;;;;;;;;;;5012908;28;20127;-70
2021/07/02 13:04:43;;;;;;;12.90;5.00;;;;;;;;;;5012483;28;20076;-69
2021/07/02 13:07:09;;;;;;;11.38;4.95;;;;;;;;;;5012652;28;20018;-69
2021/07/02 13:09:35;;;;;;;10.10;4.53;;;;;;;;;;5011834;28;20077;-70
2021/07/02 13:12:13;;;;;;;9.73;4.85;;;;;;;;;;5012738;28;20350;-70
2021/07/02 13:14:42;;;;;;;11.48;5.05;;;;;;;;;;5013266;28;20018;-67
2021/07/02 13:17:08;;;;;;;11.10;4.80;;;;;;;;;;5012775;28;20044;-68
2021/07/02 13:19:34;;;;;;;10.27;5.00;;;;;;;;;;4998735;28;20035;-69
2021/07/02 13:22:16;;;;;;;8.95;3.97;;;;;;;;;;5010901;28;20378;-69
2021/07/02 13:24:42;;;;;;;10.00;4.90;;;;;;;;;;5010338;28;20033;-69
2021/07/02 13:27:08;;;;;;;10.55;4.97;;;;;;;;;;5010842;28;20125;-69
2021/07/02 13:29:33;;;;;;;10.65;4.97;;;;;;;;;;5009375;28;20385;-69
2021/07/02 13:31:59;;;;;;;12.80;5.18;;;;;;;;;;5008559;28;20026;-69
2021/07/02 13:34:26;;;;;;;10.05;5.05;;;;;;;;;;5009249;28;20049;-68
2021/07/02 13:36:56;;;;;;;12.85;5.63;;;;;;;;;;5008959;28;20034;-68
2021/07/02 13:39:22;;;;;;;11.73;5.55;;;;;;;;;;5008768;28;20088;-69
2021/07/02 13:41:58;;;;;;;11.48;5.57;;;;;;;;;;5009349;28;20021;-68
2021/07/02 13:44:27;;;;;;;13.25;5.88;;;;;;;;;;5009503;28;20028;-68
2021/07/02 13:47:03;;;;;;;14.38;6.28;;;;;;;;;;5009160;28;20026;-69
2021/07/02 13:49:28;;;;;;;14.10;5.63;;;;;;;;;;5009476;28;20026;-69
2021/07/02 13:51:53;;;;;;;21.60;6.63;;;;;;;;;;5012074;28;20014;-68
2021/07/02 13:54:20;;;;;;;13.02;5.50;;;;;;;;;;5008696;28;20078;-68
2021/07/02 13:56:49;;;;;;;12.38;5.50;;;;;;;;;;5010046;28;20553;-68
2021/07/02 13:59:15;;;;;;;14.80;6.07;;;;;;;;;;5010025;28;20022;-69
2021/07/02 14:01:40;;;;;;;13.10;5.55;;;;;;;;;;5009409;28;20382;-68
2021/07/02 14:04:06;;;;;;;12.55;5.82;;;;;;;;;;5009542;28;20379;-68
2021/07/02 14:06:31;;;;;;;13.45;5.55;;;;;;;;;;5008652;28;20489;-68
2021/07/02 14:08:56;;;;;;;12.70;5.63;;;;;;;;;;5009369;28;20533;-68
2021/07/02 14:11:22;;;;;;;10.82;5.30;;;;;;;;;;5009599;28;20034;-68
2021/07/02 14:13:47;;;;;;;10.45;5.15;;;;;;;;;;5008498;28;20553;-68
2021/07/02 14:16:12;;;;;;;11.75;5.43;;;;;;;;;;5009108;28;20076;-68
2021/07/02 14:18:37;;;;;;;13.40;5.05;;;;;;;;;;5011114;28;20092;-68
2021/07/02 14:21:04;;;;;;;11.93;5.30;;;;;;;;;;5013261;28;20077;-68
2021/07/02 14:23:29;;;;;;;10.32;5.05;;;;;;;;;;5013224;28;20108;-68
2021/07/02 14:25:55;;;;;;;11.15;5.15;;;;;;;;;;5012792;28;20346;-68
2021/07/02 14:28:20;;;;;;;12.13;5.60;;;;;;;;;;5012181;28;20029;-68
2021/07/02 14:30:45;;;;;;;12.00;5.10;;;;;;;;;;5011398;28;20472;-68
2021/07/02 14:33:11;;;;;;;11.50;5.45;;;;;;;;;;5011133;28;20026;-68
2021/07/02 14:35:36;;;;;;;10.98;5.05;;;;;;;;;;5003123;28;20112;-69
2021/07/02 14:38:02;;;;;;;11.18;5.50;;;;;;;;;;5010841;28;20028;-69